Terminal Aerodrome Forecast
Issued by NWS

Home | Current Version | Previous Version | Text Only | Print | Product List | Glossary On
Versions: 1 2 3 4 5 6 7 8 9 10 11 12 13 14 15 16 17 18 19 20 21 22 23 24 25 26 27 28 29 30 31 32 33 34
000
FTUS44 KHGX 260520
TAFCXO
TAF
KCXO 260520Z 2606/2706 16008KT P6SM FEW025
     FM260900 VRB02KT 6SM BR SCT015
     FM261400 16006KT P6SM SCT025
     FM261700 18007KT P6SM VCSH SCT040
     FM262000 16008KT P6SM VCTS SCT050CB BKN250
     FM270200 14004KT P6SM FEW040=

USA.gov is the U.S. government's official web portal to all federal, state and local government web resources and services.